Time;durP1;ratioP1;P1;durP2;ratioP2;P2;SDS_P1;SDS_P2;PMS_P1;PMS_P2;Temp;Humidity;BMP_temperature;BMP_pressure;BME280_temperature;BME280_humidity;BME280_pressure;Samples;Min_cycle;Max_cycle;Signal;HPM_P1;HPM_P2
2022/06/26 00:02:12;;;;;;;3.08;2.60;;;16.70;99.90;;;;;;5072456;28;20178;-79
2022/06/26 00:04:40;;;;;;;2.75;2.55;;;16.70;99.90;;;;;;5073343;28;20227;-79
2022/06/26 00:07:13;;;;;;;2.80;2.42;;;16.60;99.90;;;;;;5074402;28;20212;-79
2022/06/26 00:09:42;;;;;;;3.80;2.33;;;16.60;99.90;;;;;;5077102;28;20193;-79
2022/06/26 00:12:08;;;;;;;4.45;2.58;;;16.60;99.90;;;;;;5077033;28;20570;-79
2022/06/26 00:14:34;;;;;;;3.38;2.70;;;16.60;99.90;;;;;;5076847;28;20179;-79
2022/06/26 00:17:00;;;;;;;2.88;2.67;;;16.60;99.90;;;;;;5077145;28;20216;-79
2022/06/26 00:19:25;;;;;;;2.78;2.58;;;16.50;99.90;;;;;;5076980;28;20296;-79
2022/06/26 00:21:51;;;;;;;2.85;2.30;;;16.40;99.90;;;;;;5077595;28;20207;-79
2022/06/26 00:24:17;;;;;;;3.08;2.88;;;16.30;99.90;;;;;;5077243;28;20181;-79
2022/06/26 00:26:43;;;;;;;5.18;2.60;;;16.30;99.90;;;;;;5077775;28;20296;-79
2022/06/26 00:29:09;;;;;;;2.97;2.78;;;16.20;99.90;;;;;;5078585;28;20266;-79
2022/06/26 00:31:35;;;;;;;2.75;2.50;;;16.30;99.90;;;;;;5077801;28;20201;-79
2022/06/26 00:34:00;;;;;;;4.85;3.15;;;16.30;99.90;;;;;;5077620;28;20176;-79
2022/06/26 00:36:26;;;;;;;8.45;7.43;;;16.30;99.90;;;;;;5078612;28;20200;-79
2022/06/26 00:39:24;;;;;;;10.45;7.57;;;16.30;99.90;;;;;;5077254;28;20233;-79
2022/06/26 00:41:51;;;;;;;5.35;4.22;;;16.20;99.90;;;;;;5077915;28;20180;-79
2022/06/26 00:44:21;;;;;;;4.40;3.80;;;16.20;99.90;;;;;;5077763;28;20181;-79
2022/06/26 00:46:47;;;;;;;4.15;3.58;;;16.20;99.90;;;;;;5077518;28;20201;-79
2022/06/26 00:49:13;;;;;;;3.28;2.97;;;16.20;99.90;;;;;;5076937;28;20707;-79
2022/06/26 00:51:43;;;;;;;3.97;3.00;;;16.30;99.90;;;;;;5077464;28;20170;-79
2022/06/26 00:54:09;;;;;;;3.50;2.90;;;16.30;99.90;;;;;;5077259;28;20537;-79
2022/06/26 00:56:36;;;;;;;4.38;2.80;;;16.30;99.90;;;;;;5077129;28;20177;-79
2022/06/26 00:59:03;;;;;;;3.10;2.90;;;16.20;99.90;;;;;;5078183;28;20205;-79
2022/06/26 01:01:29;;;;;;;3.30;3.00;;;16.00;99.90;;;;;;5078597;28;20188;-79
2022/06/26 01:03:55;;;;;;;3.70;3.17;;;16.10;99.90;;;;;;5078875;28;20174;-79
2022/06/26 01:06:21;;;;;;;3.40;3.20;;;16.00;99.90;;;;;;5077076;28;20729;-79
2022/06/26 01:08:46;;;;;;;3.03;2.70;;;16.00;99.90;;;;;;5076723;28;20193;-79
2022/06/26 01:11:18;;;;;;;3.13;2.80;;;16.00;99.90;;;;;;5076212;28;20186;-79
2022/06/26 01:13:45;;;;;;;3.00;2.70;;;16.00;99.90;;;;;;5076893;28;20173;-79
2022/06/26 01:16:13;;;;;;;3.95;2.63;;;15.90;99.90;;;;;;5077506;28;20185;-79
2022/06/26 01:18:39;;;;;;;2.92;2.67;;;16.00;99.90;;;;;;5075967;28;20664;-79
2022/06/26 01:21:05;;;;;;;3.55;2.47;;;15.80;99.90;;;;;;5076016;28;20258;-79
2022/06/26 01:23:31;;;;;;;2.97;2.75;;;15.70;99.90;;;;;;5077061;28;20513;-79
2022/06/26 01:25:57;;;;;;;2.88;2.67;;;15.60;99.90;;;;;;5077928;28;20251;-79
2022/06/26 01:28:22;;;;;;;4.22;2.50;;;15.70;99.90;;;;;;5076764;28;20198;-78
2022/06/26 01:30:48;;;;;;;2.90;2.70;;;15.60;99.90;;;;;;5076682;28;20176;-78
2022/06/26 01:33:13;;;;;;;2.70;2.50;;;15.60;99.90;;;;;;5076897;28;20177;-78
2022/06/26 01:35:39;;;;;;;3.25;2.65;;;15.40;99.90;;;;;;5077830;28;20212;-78
2022/06/26 01:38:22;;;;;;;3.28;2.95;;;15.50;99.90;;;;;;5077606;28;20228;-78
2022/06/26 01:40:49;;;;;;;3.00;2.80;;;15.50;99.90;;;;;;5076511;28;20174;-78
2022/06/26 01:43:17;;;;;;;2.72;2.53;;;15.40;99.90;;;;;;5077041;28;20180;-78
2022/06/26 01:45:48;;;;;;;2.80;2.60;;;15.50;99.90;;;;;;5076362;28;20262;-78
2022/06/26 01:48:15;;;;;;;3.30;2.50;;;15.50;99.90;;;;;;5076910;28;20201;-78
2022/06/26 01:50:41;;;;;;;2.60;2.50;;;15.30;99.90;;;;;;5076359;28;20177;-78
2022/06/26 01:53:06;;;;;;;4.00;2.72;;;15.40;99.90;;;;;;5077530;28;20173;-78
2022/06/26 01:55:32;;;;;;;2.97;2.60;;;15.40;99.90;;;;;;5076335;28;20678;-78
2022/06/26 01:58:01;;;;;;;2.70;2.60;;;15.30;99.90;;;;;;5076239;28;20185;-78
2022/06/26 02:00:28;;;;;;;2.75;2.55;;;15.40;99.90;;;;;;5077896;28;20182;-78
2022/06/26 02:02:55;;;;;;;3.10;2.88;;;15.40;99.90;;;;;;5076137;28;20189;-78
2022/06/26 02:05:20;;;;;;;2.92;2.72;;;15.40;99.90;;;;;;5077464;28;20201;-78
2022/06/26 02:07:46;;;;;;;4.30;2.80;;;15.40;99.90;;;;;;5075911;28;20550;-78
2022/06/26 02:15:40;;;;;;;2.88;2.67;;;15.40;99.90;;;;;;5076720;28;20192;-78
2022/06/26 02:18:05;;;;;;;4.15;2.58;;;15.40;99.90;;;;;;5075238;28;20202;-78
2022/06/26 02:20:31;;;;;;;4.40;3.03;;;15.40;99.90;;;;;;5076343;28;20213;-78
2022/06/26 02:22:57;;;;;;;3.00;2.80;;;15.40;99.90;;;;;;5073615;28;20220;-78
2022/06/26 02:25:22;;;;;;;3.05;2.85;;;15.40;99.90;;;;;;5073918;28;20209;-78
2022/06/26 02:27:48;;;;;;;3.22;3.00;;;15.30;99.90;;;;;;5073192;28;20219;-78
2022/06/26 02:30:14;;;;;;;3.45;2.90;;;15.10;99.90;;;;;;5074463;28;20260;-78
2022/06/26 02:32:41;;;;;;;5.00;2.95;;;15.00;99.90;;;;;;5074356;28;20184;-78
2022/06/26 02:35:07;;;;;;;3.33;3.03;;;15.00;99.90;;;;;;5073354;28;20215;-78
2022/06/26 02:37:34;;;;;;;3.10;2.83;;;15.00;99.90;;;;;;5074322;28;20177;-78
2022/06/26 02:40:00;;;;;;;2.75;2.63;;;15.10;99.90;;;;;;5074482;28;20247;-78
2022/06/26 02:42:25;;;;;;;2.60;2.40;;;15.20;99.90;;;;;;5073052;28;20182;-78
2022/06/26 02:44:52;;;;;;;2.50;2.38;;;15.10;99.90;;;;;;5073324;28;20176;-78
2022/06/26 02:47:17;;;;;;;2.90;2.47;;;15.10;99.90;;;;;;5073836;28;20173;-78
2022/06/26 02:49:43;;;;;;;3.33;3.00;;;15.10;99.90;;;;;;5072837;28;20200;-78
2022/06/26 02:52:08;;;;;;;3.03;2.83;;;14.90;99.90;;;;;;5072916;28;20173;-78
2022/06/26 02:54:34;;;;;;;3.03;2.80;;;14.90;99.90;;;;;;5073137;28;20201;-78
2022/06/26 02:56:59;;;;;;;6.55;2.97;;;14.90;99.90;;;;;;5073929;28;20547;-78
2022/06/26 02:59:25;;;;;;;3.10;2.90;;;14.90;99.90;;;;;;5072965;28;20209;-78
2022/06/26 03:01:50;;;;;;;3.00;2.80;;;14.80;99.90;;;;;;5073295;28;20177;-78
2022/06/26 03:04:16;;;;;;;3.45;3.15;;;14.80;99.90;;;;;;5072715;28;20181;-78
2022/06/26 03:06:42;;;;;;;6.40;3.22;;;14.70;99.90;;;;;;5072613;28;20581;-78
2022/06/26 03:09:07;;;;;;;4.18;3.00;;;14.80;99.90;;;;;;5072827;28;20268;-78
2022/06/26 03:11:34;;;;;;;3.28;2.78;;;14.80;99.90;;;;;;5074071;28;20170;-78
2022/06/26 03:13:59;;;;;;;3.58;3.15;;;14.80;99.90;;;;;;5072535;28;20281;-78
2022/06/26 03:16:25;;;;;;;3.80;2.88;;;14.90;99.90;;;;;;5072427;28;20626;-78
2022/06/26 03:18:51;;;;;;;3.45;3.15;;;14.90;99.90;;;;;;5072725;28;20220;-78
2022/06/26 03:21:17;;;;;;;4.00;2.95;;;14.80;99.90;;;;;;5073701;28;20555;-78
2022/06/26 03:26:27;;;;;;;3.05;2.80;;;14.80;99.90;;;;;;5073603;28;20201;-78
2022/06/26 03:28:53;;;;;;;4.68;3.10;;;14.80;99.90;;;;;;5072873;28;20198;-78
2022/06/26 03:31:19;;;;;;;3.17;2.97;;;14.70;99.90;;;;;;5072929;28;20176;-78
2022/06/26 03:33:44;;;;;;;3.40;3.10;;;14.70;99.90;;;;;;5072289;28;20173;-78
2022/06/26 03:36:10;;;;;;;3.85;3.50;;;14.60;99.90;;;;;;5073999;28;20196;-78
2022/06/26 03:38:36;;;;;;;3.60;3.10;;;14.50;99.90;;;;;;5072163;28;20216;-78
2022/06/26 03:41:02;;;;;;;5.85;3.03;;;14.40;99.90;;;;;;5072251;28;20272;-78
2022/06/26 03:43:27;;;;;;;3.97;3.20;;;14.50;99.90;;;;;;5072097;28;20217;-78
2022/06/26 03:45:54;;;;;;;8.38;3.22;;;14.50;99.90;;;;;;5072659;28;20675;-78
2022/06/26 03:48:19;;;;;;;3.88;3.10;;;14.50;99.90;;;;;;5072148;28;20225;-78
2022/06/26 03:50:45;;;;;;;5.50;3.13;;;14.60;99.90;;;;;;5073031;28;20586;-78
2022/06/26 03:53:10;;;;;;;4.40;3.10;;;14.70;99.90;;;;;;5072354;28;20184;-78
2022/06/26 03:55:36;;;;;;;5.35;3.30;;;14.80;99.90;;;;;;5072100;28;20183;-78
2022/06/26 03:58:03;;;;;;;3.67;3.38;;;14.80;99.90;;;;;;5072751;28;20200;-78
2022/06/26 04:00:29;;;;;;;4.50;3.30;;;14.80;99.90;;;;;;5072642;28;20264;-78
2022/06/26 04:02:54;;;;;;;6.55;3.67;;;14.80;99.90;;;;;;5072099;28;20619;-78
2022/06/26 04:05:20;;;;;;;4.00;3.67;;;14.80;99.90;;;;;;5072755;28;20233;-78
2022/06/26 04:07:46;;;;;;;9.45;4.10;;;14.80;99.90;;;;;;5071972;28;20307;-78
2022/06/26 04:10:12;;;;;;;3.78;3.45;;;14.90;99.90;;;;;;5071973;28;20212;-78
2022/06/26 04:12:38;;;;;;;6.20;3.80;;;15.00;99.90;;;;;;5071906;28;20205;-78
2022/06/26 04:15:05;;;;;;;3.75;3.45;;;15.00;99.90;;;;;;5073068;28;20170;-78
2022/06/26 04:17:30;;;;;;;5.05;3.60;;;15.20;99.90;;;;;;5071819;28;20243;-78
2022/06/26 04:19:56;;;;;;;3.60;3.30;;;15.30;99.90;;;;;;5072100;28;20225;-78
2022/06/26 04:22:22;;;;;;;3.85;3.55;;;15.30;99.90;;;;;;5072657;28;20522;-78
2022/06/26 04:24:48;;;;;;;4.63;3.45;;;15.40;99.90;;;;;;5072164;28;20602;-78
2022/06/26 04:27:14;;;;;;;5.93;3.60;;;15.50;99.90;;;;;;5071662;28;20206;-78
2022/06/26 04:29:40;;;;;;;4.13;3.10;;;15.60;99.90;;;;;;5072927;28;20289;-78
2022/06/26 04:32:06;;;;;;;4.00;3.47;;;15.70;99.90;;;;;;5073252;28;20193;-78
2022/06/26 04:34:32;;;;;;;3.95;3.40;;;15.80;99.90;;;;;;5071754;28;20211;-78
2022/06/26 04:36:58;;;;;;;4.53;3.40;;;16.00;99.90;;;;;;5073259;28;20181;-78
2022/06/26 04:39:24;;;;;;;4.22;3.83;;;15.90;99.90;;;;;;5071632;28;20574;-78
2022/06/26 04:41:50;;;;;;;5.65;3.50;;;16.10;99.90;;;;;;5071583;28;20273;-78
2022/06/26 04:44:17;;;;;;;4.20;3.80;;;16.20;99.90;;;;;;5071710;28;20181;-78
2022/06/26 04:46:46;;;;;;;4.22;3.67;;;16.30;99.90;;;;;;5072563;28;20221;-78
2022/06/26 04:49:13;;;;;;;5.22;3.85;;;16.50;99.90;;;;;;5073078;28;20202;-78
2022/06/26 04:51:39;;;;;;;4.15;3.72;;;16.50;99.90;;;;;;5072453;28;20256;-78
2022/06/26 04:54:06;;;;;;;6.00;3.88;;;16.60;99.90;;;;;;5071649;28;20201;-78
2022/06/26 04:56:32;;;;;;;3.97;3.67;;;16.80;99.90;;;;;;5075718;28;20254;-78
2022/06/26 04:58:59;;;;;;;3.72;3.42;;;16.90;99.90;;;;;;5075367;28;20201;-78
2022/06/26 05:01:26;;;;;;;3.58;3.33;;;17.10;99.90;;;;;;5075371;28;20184;-78
2022/06/26 05:03:51;;;;;;;4.18;3.70;;;17.20;99.90;;;;;;5075903;28;20196;-78
2022/06/26 05:06:17;;;;;;;3.50;3.20;;;17.30;99.90;;;;;;5075241;28;20290;-78
2022/06/26 05:08:43;;;;;;;4.50;3.50;;;17.60;99.90;;;;;;5075514;28;20292;-78
2022/06/26 05:11:08;;;;;;;4.63;3.58;;;17.80;99.90;;;;;;5075783;28;20173;-78
2022/06/26 05:13:34;;;;;;;4.05;3.42;;;17.90;99.90;;;;;;5075976;28;20170;-78
2022/06/26 05:15:59;;;;;;;4.07;3.65;;;18.20;99.90;;;;;;5074824;28;20177;-78
2022/06/26 05:18:26;;;;;;;4.25;3.80;;;18.20;99.90;;;;;;5074976;28;20201;-78
2022/06/26 05:20:52;;;;;;;4.10;3.25;;;18.30;99.90;;;;;;5075574;28;20227;-78
2022/06/26 05:23:17;;;;;;;3.65;3.35;;;18.50;99.90;;;;;;5075973;28;20174;-78
2022/06/26 05:25:43;;;;;;;4.28;3.72;;;18.80;99.90;;;;;;5074653;28;20235;-78
2022/06/26 05:28:10;;;;;;;4.55;3.35;;;19.00;99.90;;;;;;5075099;28;20238;-78
2022/06/26 05:30:35;;;;;;;3.42;3.20;;;19.30;99.90;;;;;;5076210;28;20185;-78
2022/06/26 05:33:02;;;;;;;4.90;3.60;;;19.70;99.90;;;;;;5074721;28;20254;-79
2022/06/26 05:35:52;;;;;;;5.40;3.35;;;19.90;99.90;;;;;;5074742;28;20197;-79
2022/06/26 05:38:18;;;;;;;5.75;3.40;;;20.20;99.90;;;;;;5075437;28;20569;-79
2022/06/26 05:40:44;;;;;;;4.28;3.47;;;20.30;99.90;;;;;;5074984;28;20185;-79
2022/06/26 05:43:09;;;;;;;3.72;3.33;;;20.40;99.90;;;;;;5074669;28;20640;-79
2022/06/26 05:45:35;;;;;;;3.88;3.58;;;20.60;99.90;;;;;;5075565;28;20296;-79
2022/06/26 05:48:01;;;;;;;7.03;3.20;;;20.80;99.90;;;;;;5074623;28;20193;-79
2022/06/26 05:50:26;;;;;;;4.20;3.00;;;21.00;99.90;;;;;;5074644;28;20170;-79
2022/06/26 05:52:52;;;;;;;3.20;3.00;;;21.20;99.90;;;;;;5074710;28;20176;-79
2022/06/26 05:55:18;;;;;;;3.08;2.80;;;21.20;99.90;;;;;;5074937;28;20183;-79
2022/06/26 05:57:43;;;;;;;4.43;3.05;;;21.30;99.90;;;;;;5075705;28;20178;-79
2022/06/26 06:00:11;;;;;;;2.97;2.72;;;21.30;99.90;;;;;;5074619;28;20184;-79
2022/06/26 06:02:37;;;;;;;4.32;2.80;;;21.40;99.90;;;;;;5075359;28;20174;-79
2022/06/26 06:05:05;;;;;;;3.10;2.90;;;21.40;99.90;;;;;;5074122;28;20600;-80
2022/06/26 06:07:30;;;;;;;4.00;2.95;;;21.40;99.90;;;;;;5073929;28;20193;-78
2022/06/26 06:09:56;;;;;;;3.42;3.22;;;21.30;99.90;;;;;;5073697;28;20247;-78
2022/06/26 06:12:29;;;;;;;3.35;3.10;;;21.50;99.90;;;;;;5074056;28;20174;-79
2022/06/26 06:14:54;;;;;;;3.72;2.53;;;21.70;99.90;;;;;;5074597;28;20197;-79
2022/06/26 06:20:07;;;;;;;3.97;3.10;;;22.20;99.90;;;;;;5075769;28;20275;-79
2022/06/26 06:22:33;;;;;;;2.90;2.67;;;22.70;99.10;;;;;;5074750;28;20178;-79
2022/06/26 06:25:33;;;;;;;3.30;2.90;;;23.20;97.60;;;;;;5073915;28;20182;-79
2022/06/26 06:27:59;;;;;;;6.95;3.20;;;23.60;96.50;;;;;;5079350;28;20166;-79
2022/06/26 06:30:25;;;;;;;3.58;2.60;;;24.10;94.30;;;;;;5081907;28;20170;-79
2022/06/26 06:32:51;;;;;;;3.22;2.90;;;25.10;92.50;;;;;;5079424;28;20251;-79
2022/06/26 06:35:17;;;;;;;3.30;2.90;;;25.60;89.60;;;;;;5079203;28;20193;-79
2022/06/26 06:37:44;;;;;;;2.83;2.50;;;26.00;84.30;;;;;;5075027;28;20264;-79
2022/06/26 06:40:11;;;;;;;3.08;2.78;;;26.30;82.30;;;;;;5075165;28;20173;-81
2022/06/26 06:42:37;;;;;;;6.00;2.58;;;26.30;81.50;;;;;;5073526;28;20192;-81
2022/06/26 06:45:03;;;;;;;2.90;2.50;;;26.00;79.20;;;;;;5073607;28;20173;-80
2022/06/26 06:48:08;;;;;;;6.53;2.95;;;25.80;80.60;;;;;;5073387;28;20523;-80
2022/06/26 06:50:48;;;;;;;5.25;2.70;;;26.10;80.60;;;;;;5075700;28;20200;-80
2022/06/26 06:53:20;;;;;;;2.80;2.20;;;26.20;76.00;;;;;;5075108;28;20173;-80
2022/06/26 06:55:46;;;;;;;2.50;2.30;;;26.30;76.20;;;;;;5074136;28;20581;-80
2022/06/26 06:58:12;;;;;;;2.53;2.20;;;26.60;74.40;;;;;;5073862;28;20660;-81
2022/06/26 07:00:38;;;;;;;3.25;2.20;;;26.40;74.30;;;;;;5074886;28;20188;-81
2022/06/26 07:03:43;;;;;;;2.33;2.22;;;26.20;75.40;;;;;;5074773;28;20189;-81
2022/06/26 07:06:09;;;;;;;2.10;2.00;;;25.30;74.50;;;;;;5075023;28;20223;-81
2022/06/26 07:08:34;;;;;;;2.20;2.10;;;24.90;79.20;;;;;;5074297;28;20198;-80
2022/06/26 07:11:03;;;;;;;3.97;2.15;;;24.70;80.90;;;;;;5073639;28;20174;-80
2022/06/26 07:13:29;;;;;;;4.32;2.40;;;24.70;82.90;;;;;;5074714;28;20174;-79
2022/06/26 07:15:54;;;;;;;2.47;2.28;;;24.60;81.70;;;;;;5075307;28;20230;-79
2022/06/26 07:18:22;;;;;;;3.95;2.35;;;24.60;82.30;;;;;;5073347;28;20197;-79
2022/06/26 07:20:47;;;;;;;3.63;2.40;;;24.60;82.20;;;;;;5073778;28;20252;-79
2022/06/26 07:23:13;;;;;;;2.30;2.10;;;24.70;82.60;;;;;;5073088;28;20711;-79
2022/06/26 07:25:58;;;;;;;2.60;2.25;;;24.70;79.70;;;;;;5072855;28;20215;-79
2022/06/26 07:28:24;;;;;;;2.40;2.20;;;24.60;82.60;;;;;;5075252;28;20232;-79
2022/06/26 07:30:49;;;;;;;4.03;2.15;;;24.70;81.60;;;;;;5073167;28;20173;-80
2022/06/26 07:35:59;;;;;;;4.35;2.20;;;24.80;80.50;;;;;;5074240;28;20663;-81
2022/06/26 07:38:26;;;;;;;2.30;2.20;;;24.80;78.90;;;;;;5074695;28;20249;-80
2022/06/26 07:41:01;;;;;;;2.47;2.28;;;24.90;78.70;;;;;;5073635;28;20178;-80
2022/06/26 07:43:26;;;;;;;2.35;2.08;;;25.00;80.00;;;;;;5075034;28;20188;-80
2022/06/26 07:45:52;;;;;;;2.50;2.30;;;25.00;78.20;;;;;;5072819;28;20205;-80
2022/06/26 07:48:18;;;;;;;3.67;2.25;;;25.10;77.40;;;;;;5072849;28;20606;-80
2022/06/26 07:50:43;;;;;;;3.72;2.00;;;25.00;77.30;;;;;;5073873;28;20181;-80
2022/06/26 07:53:10;;;;;;;2.97;2.13;;;25.00;77.30;;;;;;5074745;28;20264;-80
2022/06/26 07:55:44;;;;;;;3.03;2.50;;;25.10;77.40;;;;;;5074017;28;20673;-80
2022/06/26 07:58:09;;;;;;;2.20;2.10;;;25.10;76.80;;;;;;5073543;28;20690;-80
2022/06/26 08:00:35;;;;;;;3.60;2.10;;;25.20;77.60;;;;;;5072783;28;20204;-80
2022/06/26 08:03:53;;;;;;;7.68;2.30;;;25.20;76.00;;;;;;5073021;28;20276;-80
2022/06/26 08:06:20;;;;;;;4.07;2.10;;;25.20;76.60;;;;;;5072969;28;20206;-80
2022/06/26 08:08:48;;;;;;;2.10;1.90;;;25.20;76.80;;;;;;5074326;28;20189;-80
2022/06/26 08:11:13;;;;;;;3.17;1.80;;;25.40;76.40;;;;;;5074472;28;20181;-80
2022/06/26 08:13:39;;;;;;;2.00;1.90;;;25.50;75.40;;;;;;5074430;28;20236;-80
2022/06/26 08:16:06;;;;;;;4.10;2.00;;;25.70;75.00;;;;;;5074340;28;20209;-80
2022/06/26 08:18:32;;;;;;;2.38;2.03;;;25.80;74.60;;;;;;5074396;28;20193;-79
2022/06/26 08:22:00;;;;;;;1.90;1.80;;;25.80;71.80;;;;;;5076693;28;20181;-80
2022/06/26 08:23:47;;;;;;;1.83;1.73;;;25.80;71.60;;;;;;5076461;28;20185;-80
2022/06/26 08:26:13;;;;;;;2.03;1.88;;;26.00;72.20;;;;;;5073125;28;20220;-81
2022/06/26 08:28:42;;;;;;;1.80;1.70;;;26.10;69.50;;;;;;5073805;28;20255;-80
2022/06/26 08:31:08;;;;;;;1.63;1.52;;;26.10;70.40;;;;;;5077662;28;20169;-80
2022/06/26 08:33:34;;;;;;;2.85;1.70;;;26.20;70.40;;;;;;5085468;28;20176;-80
2022/06/26 08:36:01;;;;;;;2.20;1.73;;;26.30;69.50;;;;;;5087604;28;20228;-80
2022/06/26 08:38:27;;;;;;;2.50;1.77;;;26.40;67.90;;;;;;5087214;28;20208;-80
2022/06/26 08:40:53;;;;;;;1.70;1.30;;;26.50;68.50;;;;;;5085952;28;20193;-79
2022/06/26 08:43:22;;;;;;;1.77;1.63;;;26.40;64.60;;;;;;5081288;28;20209;-80
2022/06/26 08:45:53;;;;;;;2.20;1.52;;;26.30;65.50;;;;;;5079857;28;20213;-80
2022/06/26 08:48:21;;;;;;;1.70;1.60;;;26.10;66.70;;;;;;5077497;28;20197;-79
2022/06/26 08:50:49;;;;;;;1.90;1.70;;;26.20;68.10;;;;;;5077059;28;20170;-80
2022/06/26 08:53:15;;;;;;;5.03;2.00;;;26.50;67.60;;;;;;5076598;28;20181;-80
2022/06/26 08:55:45;;;;;;;2.10;1.90;;;26.50;67.00;;;;;;5075879;28;20184;-80
2022/06/26 08:58:42;;;;;;;2.20;1.83;;;26.60;66.50;;;;;;5075312;28;20672;-81
2022/06/26 09:01:07;;;;;;;2.45;1.80;;;26.60;66.90;;;;;;5075836;28;20257;-81
2022/06/26 09:03:41;;;;;;;1.70;1.60;;;26.60;66.70;;;;;;5075661;28;20228;-80
2022/06/26 09:06:06;;;;;;;2.05;1.70;;;26.70;66.50;;;;;;5076708;28;20394;-80
2022/06/26 09:08:43;;;;;;;1.90;1.80;;;26.90;66.90;;;;;;5076142;28;20229;-80
2022/06/26 09:11:09;;;;;;;1.98;1.80;;;26.90;65.30;;;;;;5075877;28;20172;-80
2022/06/26 09:13:37;;;;;;;1.70;1.60;;;26.90;65.20;;;;;;5075858;28;20177;-80
2022/06/26 09:16:03;;;;;;;2.67;1.67;;;27.10;65.70;;;;;;5075843;28;20534;-80
2022/06/26 09:18:35;;;;;;;2.08;1.65;;;27.20;64.00;;;;;;5076117;28;20243;-80
2022/06/26 09:21:01;;;;;;;1.85;1.75;;;27.30;62.50;;;;;;5076252;28;20173;-80
2022/06/26 09:23:26;;;;;;;2.40;1.85;;;27.20;61.50;;;;;;5075903;28;20174;-80
2022/06/26 09:25:52;;;;;;;1.77;1.67;;;27.20;62.50;;;;;;5076571;28;20282;-80
2022/06/26 09:28:20;;;;;;;2.20;1.77;;;27.20;63.30;;;;;;5075725;28;20193;-80
2022/06/26 09:31:07;;;;;;;1.50;1.50;;;27.40;63.10;;;;;;5075821;28;20177;-80
2022/06/26 09:33:36;;;;;;;1.58;1.48;;;27.50;63.20;;;;;;5077597;28;20173;-80
2022/06/26 09:36:18;;;;;;;1.40;1.40;;;27.80;62.10;;;;;;5077638;28;20207;-81
2022/06/26 09:38:51;;;;;;;1.40;1.30;;;28.00;61.60;;;;;;5077034;28;20201;-80
2022/06/26 09:41:34;;;;;;;1.77;1.67;;;28.10;60.40;;;;;;5076725;28;20162;-81
2022/06/26 09:44:00;;;;;;;1.67;1.58;;;28.10;59.40;;;;;;5076947;28;20684;-81
2022/06/26 09:50:09;;;;;;;3.00;1.65;;;28.50;60.80;;;;;;5077304;28;20210;-80
2022/06/26 09:52:50;;;;;;;1.60;1.50;;;28.60;57.90;;;;;;5077511;28;20185;-80
2022/06/26 09:55:22;;;;;;;1.63;1.50;;;28.40;56.90;;;;;;5075738;28;20165;-80
2022/06/26 09:57:48;;;;;;;1.60;1.35;;;28.30;57.40;;;;;;5075989;28;20235;-80
2022/06/26 10:00:14;;;;;;;1.60;1.50;;;28.10;57.40;;;;;;5077180;28;20249;-79
2022/06/26 10:08:51;;;;;;;1.40;1.30;;;28.80;55.20;;;;;;5075622;28;20196;-81
2022/06/26 10:18:19;;;;;;;1.58;1.48;;;28.70;54.60;;;;;;5075488;28;20244;-81
2022/06/26 10:20:46;;;;;;;1.50;1.40;;;28.60;54.60;;;;;;5077032;28;20165;-81
2022/06/26 10:23:34;;;;;;;1.60;1.50;;;28.70;54.90;;;;;;5075253;28;20218;-80
2022/06/26 10:26:54;;;;;;;1.40;1.30;;;28.90;54.60;;;;;;5074863;28;20280;-81
2022/06/26 10:33:07;;;;;;;1.27;1.17;;;29.20;53.00;;;;;;5074746;28;20199;-81
2022/06/26 10:35:45;;;;;;;1.55;1.27;;;29.50;51.50;;;;;;5073618;28;20198;-81
2022/06/26 10:38:25;;;;;;;1.30;1.20;;;29.60;52.80;;;;;;5073624;28;20204;-81
2022/06/26 10:44:28;;;;;;;1.10;1.10;;;30.30;52.60;;;;;;5075436;28;20167;-81
2022/06/26 10:46:58;;;;;;;1.55;1.33;;;30.40;48.70;;;;;;5075784;28;20597;-80
2022/06/26 10:49:23;;;;;;;1.00;1.00;;;30.50;48.60;;;;;;5074915;28;20227;-87
2022/06/26 10:52:13;;;;;;;2.17;1.10;;;30.30;47.70;;;;;;5074190;28;20173;-80
2022/06/26 10:54:50;;;;;;;1.20;1.20;;;30.20;48.40;;;;;;5074305;28;20545;-80
2022/06/26 10:57:25;;;;;;;2.58;1.30;;;29.90;48.50;;;;;;5073909;28;20188;-80
2022/06/26 11:00:07;;;;;;;1.30;1.08;;;29.90;49.10;;;;;;5073122;28;20674;-81
2022/06/26 11:02:38;;;;;;;1.45;1.15;;;29.90;48.70;;;;;;5073640;28;20165;-81
2022/06/26 11:05:15;;;;;;;1.10;1.10;;;29.50;48.70;;;;;;5074403;28;20678;-81
2022/06/26 11:08:21;;;;;;;1.30;1.20;;;29.20;49.80;;;;;;5073823;28;20240;-81
2022/06/26 11:10:46;;;;;;;1.33;1.10;;;28.80;51.10;;;;;;5075519;28;20157;-80
2022/06/26 11:13:12;;;;;;;1.30;1.20;;;28.70;52.20;;;;;;5074223;28;20179;-80
2022/06/26 11:15:40;;;;;;;2.03;1.40;;;28.70;52.50;;;;;;5074511;28;20176;-80
2022/06/26 11:18:06;;;;;;;1.30;1.20;;;29.00;52.40;;;;;;5074110;28;20288;-80
2022/06/26 11:20:55;;;;;;;1.13;1.13;;;29.30;51.40;;;;;;5072929;28;20231;-81
2022/06/26 11:23:35;;;;;;;1.30;1.20;;;29.80;48.40;;;;;;5072887;28;20539;-81
2022/06/26 11:26:07;;;;;;;1.02;1.02;;;30.20;48.80;;;;;;5072691;28;20604;-81
2022/06/26 11:28:42;;;;;;;2.15;1.10;;;30.40;46.90;;;;;;5074203;28;20237;-81
2022/06/26 11:31:19;;;;;;;2.03;1.02;;;30.50;48.00;;;;;;5072760;28;20176;-81
2022/06/26 11:33:44;;;;;;;2.65;1.23;;;30.30;47.70;;;;;;5073497;28;20219;-81
2022/06/26 11:36:27;;;;;;;1.58;1.33;;;30.10;47.30;;;;;;5072813;28;20284;-81
2022/06/26 11:38:54;;;;;;;1.23;1.13;;;29.90;48.40;;;;;;5076029;28;20211;-80
2022/06/26 11:41:24;;;;;;;1.20;1.20;;;29.90;48.10;;;;;;5072825;28;20550;-80
2022/06/26 11:43:55;;;;;;;1.55;1.13;;;29.90;48.30;;;;;;5074414;28;20210;-80
2022/06/26 11:46:21;;;;;;;1.33;1.23;;;30.10;48.10;;;;;;5072832;28;20205;-80
2022/06/26 11:49:34;;;;;;;1.25;0.90;;;30.20;48.60;;;;;;5072593;28;20722;-80
2022/06/26 11:51:59;;;;;;;4.03;1.05;;;30.00;49.20;;;;;;5072681;28;20196;-80
2022/06/26 11:54:28;;;;;;;2.03;1.23;;;29.70;49.00;;;;;;5072460;28;20211;-80
2022/06/26 11:56:53;;;;;;;2.58;1.10;;;29.20;50.20;;;;;;5073499;28;20192;-81
2022/06/26 12:00:00;;;;;;;3.13;1.20;;;29.10;49.50;;;;;;5074278;28;20192;-80
2022/06/26 12:02:26;;;;;;;1.30;1.10;;;29.00;50.70;;;;;;5075313;28;20215;-79
2022/06/26 12:04:55;;;;;;;1.05;1.05;;;29.20;49.50;;;;;;5077152;28;20230;-79
2022/06/26 12:07:21;;;;;;;2.45;1.23;;;29.40;49.00;;;;;;5079132;28;20232;-79
2022/06/26 12:09:47;;;;;;;1.67;1.25;;;29.70;48.50;;;;;;5078667;28;20197;-81
2022/06/26 12:12:13;;;;;;;1.70;1.20;;;29.80;47.40;;;;;;5076595;28;20640;-81
2022/06/26 12:14:51;;;;;;;1.27;1.10;;;30.00;46.60;;;;;;5078430;28;20175;-80
2022/06/26 12:17:28;;;;;;;1.00;1.00;;;30.20;47.40;;;;;;5080669;28;20168;-80
2022/06/26 12:20:06;;;;;;;1.10;1.10;;;30.60;46.50;;;;;;5080159;28;20205;-81
2022/06/26 12:22:33;;;;;;;2.83;1.10;;;30.80;46.00;;;;;;5080585;28;20169;-81
2022/06/26 12:25:03;;;;;;;1.45;1.10;;;30.70;45.90;;;;;;5082452;28;20218;-81
2022/06/26 12:27:37;;;;;;;1.20;1.10;;;30.20;45.40;;;;;;5080901;28;20207;-81
2022/06/26 12:30:24;;;;;;;2.40;1.52;;;30.00;46.60;;;;;;5080860;28;20227;-80
2022/06/26 12:32:51;;;;;;;2.38;1.00;;;29.90;47.00;;;;;;5084356;28;20197;-80
2022/06/26 12:35:17;;;;;;;2.20;1.25;;;29.70;47.20;;;;;;5084369;28;20204;-80
2022/06/26 12:37:44;;;;;;;1.17;1.08;;;29.50;47.60;;;;;;5083304;28;20177;-81
2022/06/26 12:40:10;;;;;;;3.47;0.90;;;29.30;46.80;;;;;;5083519;28;20169;-81
2022/06/26 12:42:36;;;;;;;1.30;1.20;;;29.20;48.10;;;;;;5080986;28;20177;-81
2022/06/26 12:45:05;;;;;;;1.80;1.20;;;29.20;47.60;;;;;;5079339;28;20188;-81
2022/06/26 12:47:31;;;;;;;2.97;1.10;;;29.50;47.00;;;;;;5079956;28;20227;-80
2022/06/26 12:49:58;;;;;;;2.38;1.10;;;29.90;47.40;;;;;;5078961;28;20193;-81
2022/06/26 12:52:24;;;;;;;2.10;1.20;;;30.30;45.70;;;;;;5078204;28;20212;-81
2022/06/26 12:54:51;;;;;;;1.00;1.00;;;30.60;45.20;;;;;;5081480;28;20227;-80
2022/06/26 12:57:22;;;;;;;2.10;1.05;;;30.70;43.80;;;;;;5086904;28;20181;-80
2022/06/26 12:59:48;;;;;;;1.67;1.10;;;30.40;42.50;;;;;;5087633;28;20200;-80
2022/06/26 13:02:14;;;;;;;1.10;1.10;;;30.40;43.90;;;;;;5085802;28;20677;-80
2022/06/26 13:04:42;;;;;;;1.60;0.98;;;30.40;44.60;;;;;;5084813;28;20180;-80
2022/06/26 13:07:07;;;;;;;1.20;1.20;;;30.40;45.10;;;;;;5079025;28;20189;-80
2022/06/26 13:09:39;;;;;;;1.02;1.02;;;30.30;45.30;;;;;;5084560;28;20203;-80
2022/06/26 13:12:05;;;;;;;1.63;1.08;;;30.20;44.60;;;;;;5084810;28;20180;-80
2022/06/26 13:14:33;;;;;;;1.30;1.20;;;30.30;44.60;;;;;;5080777;28;20172;-80
2022/06/26 13:16:59;;;;;;;1.23;1.13;;;30.40;44.50;;;;;;5082487;28;20225;-80
2022/06/26 13:19:24;;;;;;;2.88;1.20;;;30.50;45.80;;;;;;5083703;28;20224;-80
2022/06/26 13:21:52;;;;;;;1.10;1.00;;;30.70;45.20;;;;;;5081312;28;20268;-80
2022/06/26 13:24:18;;;;;;;0.80;0.80;;;30.90;44.70;;;;;;5083086;28;20180;-80
2022/06/26 13:26:50;;;;;;;0.98;0.95;;;31.10;44.00;;;;;;5077926;28;20196;-80
2022/06/26 13:29:16;;;;;;;1.40;1.20;;;31.20;44.00;;;;;;5077804;28;20197;-80
2022/06/26 13:31:42;;;;;;;3.15;1.02;;;31.40;44.40;;;;;;5078248;28;20177;-80
2022/06/26 13:34:07;;;;;;;3.83;1.20;;;31.60;43.00;;;;;;5074959;28;20230;-80
2022/06/26 13:36:33;;;;;;;2.13;1.20;;;31.50;41.60;;;;;;5075783;28;20193;-80